createdAt,value
2018-05-13T00:01:13.922Z,17.95
2018-05-13T00:03:41.365Z,17.88
2018-05-13T00:06:08.817Z,17.71
2018-05-13T00:08:36.293Z,17.66
2018-05-13T00:11:03.748Z,17.44
2018-05-13T00:13:31.814Z,17.32
2018-05-13T00:15:59.314Z,17.30
2018-05-13T00:18:26.757Z,17.21
2018-05-13T00:26:53.037Z,17.16
2018-05-13T00:29:20.599Z,17.23
2018-05-13T00:31:48.171Z,17.34
2018-05-13T00:34:15.701Z,17.51
2018-05-13T00:36:43.215Z,17.60
2018-05-13T00:39:10.762Z,17.68
2018-05-13T00:41:38.306Z,17.82
2018-05-13T00:44:05.829Z,17.90
2018-05-13T00:46:33.348Z,17.81
2018-05-13T00:49:00.878Z,17.77
2018-05-13T00:51:28.437Z,17.67
2018-05-13T00:53:56.060Z,17.74
2018-05-13T00:56:23.573Z,17.58
2018-05-13T00:58:51.280Z,17.68
2018-05-13T01:01:18.836Z,17.53
2018-05-13T01:03:46.345Z,17.45
2018-05-13T01:06:13.928Z,17.53
2018-05-13T01:08:41.487Z,17.36
2018-05-13T01:11:09.020Z,17.31
2018-05-13T01:13:36.574Z,17.16
2018-05-13T01:16:04.103Z,17.38
2018-05-13T01:18:31.661Z,17.32
2018-05-13T01:21:00.057Z,17.19
2018-05-13T01:23:27.585Z,17.23
2018-05-13T01:25:55.120Z,17.17
2018-05-13T01:28:22.677Z,17.31
2018-05-13T01:30:50.205Z,17.27
2018-05-13T01:33:17.824Z,17.21
2018-05-13T01:35:45.441Z,17.19
2018-05-13T01:38:12.952Z,17.03
2018-05-13T01:40:40.503Z,17.03
2018-05-13T01:43:08.027Z,16.94
2018-05-13T01:45:35.633Z,16.99
2018-05-13T01:48:03.174Z,16.51
2018-05-13T01:50:30.725Z,16.69
2018-05-13T01:52:58.255Z,16.45
2018-05-13T01:55:25.806Z,16.37
2018-05-13T01:57:53.628Z,16.48
2018-05-13T02:00:21.215Z,16.49
2018-05-13T02:02:49.257Z,16.51
2018-05-13T02:05:16.799Z,16.41
2018-05-13T02:07:44.399Z,16.45
2018-05-13T02:10:11.940Z,16.43
2018-05-13T02:12:39.513Z,16.44
2018-05-13T02:15:07.174Z,16.27
2018-05-13T02:17:34.715Z,16.22
2018-05-13T02:20:02.249Z,16.18
2018-05-13T02:22:29.836Z,16.08
2018-05-13T02:24:57.374Z,16.07
2018-05-13T02:27:24.928Z,16.09
2018-05-13T02:29:52.500Z,16.22
2018-05-13T02:32:20.053Z,16.09
2018-05-13T02:34:47.637Z,16.03
2018-05-13T02:37:16.219Z,16.01
2018-05-13T02:39:43.885Z,16.19
2018-05-13T02:42:11.426Z,16.24
2018-05-13T02:44:38.977Z,16.18
2018-05-13T02:47:06.499Z,16.27
2018-05-13T02:49:34.035Z,16.15
2018-05-13T02:52:01.576Z,16.18
2018-05-13T02:54:29.106Z,16.26
2018-05-13T02:56:56.622Z,16.35
2018-05-13T02:59:24.297Z,16.46
2018-05-13T03:01:51.941Z,16.53
2018-05-13T03:04:19.575Z,16.50
2018-05-13T03:06:47.127Z,16.55
2018-05-13T03:09:14.666Z,16.66
2018-05-13T03:11:42.212Z,16.75
2018-05-13T03:14:09.760Z,16.72
2018-05-13T03:16:37.371Z,16.58
2018-05-13T03:19:05.037Z,16.58
2018-05-13T03:21:32.676Z,16.72
2018-05-13T03:24:00.259Z,16.78
2018-05-13T03:26:27.793Z,16.87
2018-05-13T03:28:55.362Z,16.95
2018-05-13T03:31:22.894Z,16.89
2018-05-13T03:33:50.456Z,16.79
2018-05-13T03:36:18.006Z,16.79
2018-05-13T03:38:45.517Z,16.64
2018-05-13T03:41:13.029Z,16.64
2018-05-13T03:43:40.591Z,16.70
2018-05-13T03:46:08.135Z,16.80
2018-05-13T03:48:35.734Z,16.79
2018-05-13T03:51:03.278Z,16.96
2018-05-13T03:53:30.831Z,16.91
2018-05-13T03:55:58.379Z,16.97
2018-05-13T03:58:25.973Z,17.04
2018-05-13T04:00:54.324Z,17.01
2018-05-13T04:03:21.848Z,17.17
2018-05-13T04:05:49.379Z,17.13
2018-05-13T04:11:39.651Z,16.67
2018-05-13T04:14:19.111Z,16.85
2018-05-13T04:16:46.633Z,16.91
2018-05-13T04:19:14.196Z,17.10
2018-05-13T04:21:41.729Z,17.11
2018-05-13T04:24:09.216Z,17.17
2018-05-13T04:26:36.782Z,17.43
2018-05-13T04:29:04.352Z,17.55
2018-05-13T04:31:31.864Z,17.59
2018-05-13T04:33:59.399Z,17.68
2018-05-13T04:36:26.952Z,17.67
2018-05-13T04:38:54.461Z,17.75
2018-05-13T04:41:21.979Z,17.63
2018-05-13T04:43:49.550Z,17.58
2018-05-13T04:46:17.107Z,17.43
2018-05-13T04:48:44.778Z,17.46
2018-05-13T04:51:12.321Z,17.52
2018-05-13T04:53:39.893Z,17.64
2018-05-13T04:56:07.430Z,17.67
2018-05-13T04:58:34.959Z,17.64
2018-05-13T05:01:02.592Z,17.53
2018-05-13T05:03:30.146Z,17.56
2018-05-13T05:05:57.677Z,17.72
2018-05-13T05:08:25.224Z,17.75
2018-05-13T05:10:52.749Z,18.09
2018-05-13T05:13:20.457Z,18.10
2018-05-13T05:15:48.021Z,18.13
2018-05-13T05:18:15.572Z,18.12
2018-05-13T05:20:43.114Z,18.24
2018-05-13T05:23:10.655Z,18.31
2018-05-13T05:25:38.329Z,18.20
2018-05-13T05:28:06.108Z,18.23
2018-05-13T05:30:33.691Z,18.17
2018-05-13T05:33:01.246Z,18.19
2018-05-13T05:35:28.791Z,18.10
2018-05-13T05:37:56.317Z,18.07
2018-05-13T05:40:23.839Z,18.12
2018-05-13T05:42:51.375Z,18.09
2018-05-13T05:45:18.901Z,18.08
2018-05-13T05:47:46.452Z,17.78
2018-05-13T05:50:14.018Z,17.79
2018-05-13T05:52:41.632Z,17.85
2018-05-13T05:55:09.179Z,18.16
2018-05-13T05:57:36.706Z,18.35
2018-05-13T06:00:04.316Z,18.49
2018-05-13T06:02:31.930Z,18.69
2018-05-13T06:04:59.492Z,18.71
2018-05-13T06:07:27.044Z,18.81
2018-05-13T06:09:54.600Z,19.09
2018-05-13T06:12:22.173Z,19.25
2018-05-13T06:14:49.940Z,19.49
2018-05-13T06:17:17.521Z,19.44
2018-05-13T06:19:45.109Z,19.49
2018-05-13T06:22:12.592Z,19.72
2018-05-13T06:24:40.128Z,19.65
2018-05-13T06:27:07.684Z,19.44
2018-05-13T06:29:35.264Z,19.26
2018-05-13T06:32:02.874Z,19.22
2018-05-13T06:34:30.700Z,18.92
2018-05-13T06:36:58.299Z,19.31
2018-05-13T06:39:25.824Z,19.20
2018-05-13T06:41:53.393Z,19.61
2018-05-13T06:44:21.085Z,20.01
2018-05-13T06:46:48.648Z,19.83
2018-05-13T06:49:16.208Z,20.27
2018-05-13T06:51:43.800Z,20.71
2018-05-13T06:54:11.345Z,21.23
2018-05-13T06:56:39.197Z,21.20
2018-05-13T06:59:06.727Z,21.85
2018-05-13T07:01:34.282Z,21.90
2018-05-13T07:04:01.863Z,21.48
2018-05-13T07:06:29.445Z,21.04
2018-05-13T07:08:56.961Z,20.98
2018-05-13T07:11:24.494Z,20.93
2018-05-13T07:13:52.040Z,20.96
2018-05-13T07:16:19.534Z,21.44
2018-05-13T07:18:47.068Z,21.63
2018-05-13T07:21:14.677Z,21.49
2018-05-13T07:23:42.224Z,21.22
2018-05-13T07:26:09.798Z,20.76
2018-05-13T07:28:37.435Z,20.58
2018-05-13T07:31:04.955Z,20.73
2018-05-13T07:33:32.467Z,21.06
2018-05-13T07:36:00.114Z,20.86
2018-05-13T07:38:27.664Z,21.07
2018-05-13T07:40:55.564Z,21.00
2018-05-13T07:43:23.172Z,20.62
2018-05-13T07:45:50.719Z,20.51
2018-05-13T07:48:18.250Z,20.26
2018-05-13T07:50:45.929Z,20.40
2018-05-13T07:53:13.474Z,20.67
2018-05-13T07:55:41.118Z,20.36
2018-05-13T07:58:08.789Z,20.32
2018-05-13T08:00:36.315Z,20.28
2018-05-13T08:03:04.005Z,20.11
2018-05-13T08:05:31.519Z,20.17
2018-05-13T08:07:59.128Z,19.87
2018-05-13T08:10:26.825Z,19.82
2018-05-13T08:12:54.379Z,19.42
2018-05-13T08:15:21.930Z,19.67
2018-05-13T08:17:49.560Z,20.41
2018-05-13T08:20:17.113Z,20.30
2018-05-13T08:22:44.776Z,20.27
2018-05-13T08:25:12.321Z,20.44
2018-05-13T08:27:39.917Z,20.59
2018-05-13T08:30:07.451Z,20.25
2018-05-13T08:32:35.033Z,20.37
2018-05-13T08:35:02.589Z,20.55
2018-05-13T08:37:30.247Z,20.22
2018-05-13T08:39:58.392Z,20.19
2018-05-13T08:42:25.937Z,20.30
2018-05-13T08:44:53.555Z,20.19
2018-05-13T08:47:21.101Z,20.45
2018-05-13T08:49:49.476Z,20.55
2018-05-13T08:52:17.067Z,20.70
2018-05-13T08:54:44.592Z,21.25
2018-05-13T08:57:12.368Z,21.62
2018-05-13T08:59:39.947Z,21.82
2018-05-13T09:02:07.485Z,21.96
2018-05-13T09:04:34.995Z,21.60
2018-05-13T09:07:02.501Z,21.59
2018-05-13T09:09:30.053Z,21.53
2018-05-13T09:11:57.642Z,21.38
2018-05-13T09:14:25.175Z,21.63
2018-05-13T09:16:52.726Z,20.85
2018-05-13T09:19:20.277Z,20.95
2018-05-13T09:21:47.802Z,20.82
2018-05-13T09:24:15.351Z,20.94
2018-05-13T09:26:43.006Z,20.39
2018-05-13T09:29:10.525Z,19.99
2018-05-13T09:31:38.216Z,19.92
2018-05-13T09:34:05.749Z,20.01
2018-05-13T09:36:33.421Z,19.55
2018-05-13T09:39:00.963Z,19.34
2018-05-13T09:41:28.495Z,19.23
2018-05-13T09:43:56.038Z,18.91
2018-05-13T09:46:23.636Z,18.84
2018-05-13T09:48:51.215Z,18.72
2018-05-13T09:51:18.781Z,18.61
2018-05-13T09:53:46.499Z,18.30
2018-05-13T09:56:14.056Z,17.93
2018-05-13T09:58:41.660Z,17.95
2018-05-13T10:01:09.221Z,18.18
2018-05-13T10:03:36.791Z,18.01
2018-05-13T10:06:04.401Z,18.41
2018-05-13T10:08:31.967Z,18.05
2018-05-13T10:10:59.491Z,17.96
2018-05-13T10:13:27.612Z,18.11
2018-05-13T10:15:55.203Z,17.86
2018-05-13T10:18:22.860Z,18.27
2018-05-13T10:20:50.668Z,18.35
2018-05-13T10:23:18.215Z,18.06
2018-05-13T10:25:45.838Z,17.76
2018-05-13T10:28:13.363Z,17.84
2018-05-13T10:30:41.445Z,17.79
2018-05-13T10:33:08.956Z,17.66
2018-05-13T10:35:36.509Z,18.03
2018-05-13T10:38:04.039Z,18.31
2018-05-13T10:40:31.583Z,18.26
2018-05-13T10:42:59.085Z,18.00
2018-05-13T10:45:26.634Z,18.08
2018-05-13T10:47:54.174Z,18.05
2018-05-13T10:50:21.761Z,18.29
2018-05-13T10:52:49.286Z,18.74
2018-05-13T10:55:16.857Z,18.88
2018-05-13T10:57:44.428Z,18.77
2018-05-13T11:00:11.986Z,18.84
2018-05-13T11:02:39.749Z,18.62
2018-05-13T11:05:07.488Z,18.76
2018-05-13T11:07:35.564Z,18.77
2018-05-13T11:10:03.152Z,18.43
2018-05-13T11:12:31.320Z,18.37
2018-05-13T11:14:58.904Z,18.13
2018-05-13T11:17:26.741Z,18.00
2018-05-13T11:19:54.301Z,18.04
2018-05-13T11:22:21.852Z,18.48
2018-05-13T11:24:49.399Z,19.03
2018-05-13T11:27:16.941Z,19.16
2018-05-13T11:29:44.476Z,19.15
2018-05-13T11:32:12.052Z,19.21
2018-05-13T11:34:39.584Z,19.80
2018-05-13T11:37:07.125Z,20.29
2018-05-13T11:39:34.676Z,20.63
2018-05-13T11:42:02.219Z,20.92
2018-05-13T11:44:29.847Z,20.63
2018-05-13T11:46:57.360Z,20.57
2018-05-13T11:49:24.888Z,20.48
2018-05-13T11:51:52.449Z,20.54
2018-05-13T11:54:20.677Z,19.90
2018-05-13T11:56:48.209Z,19.17
2018-05-13T11:59:15.727Z,18.95
2018-05-13T12:01:43.261Z,18.98
2018-05-13T12:04:10.790Z,19.08
2018-05-13T12:06:38.335Z,19.14
2018-05-13T12:09:05.914Z,18.82
2018-05-13T12:11:33.466Z,19.32
2018-05-13T12:14:01.000Z,19.85
2018-05-13T12:16:28.590Z,19.68
2018-05-13T12:18:56.141Z,19.67
2018-05-13T12:21:23.700Z,19.61
2018-05-13T12:23:51.277Z,19.57
2018-05-13T12:26:18.835Z,20.05
2018-05-13T12:28:46.385Z,20.30
2018-05-13T12:31:13.915Z,20.56
2018-05-13T12:33:41.456Z,20.70
2018-05-13T12:36:08.996Z,20.44
2018-05-13T12:38:36.521Z,21.28
2018-05-13T12:41:04.080Z,23.41
2018-05-13T12:43:31.613Z,24.34
2018-05-13T12:45:59.148Z,25.58
2018-05-13T12:48:26.671Z,26.26
2018-05-13T12:50:54.199Z,25.79
2018-05-13T12:53:21.779Z,24.41
2018-05-13T12:55:49.413Z,23.74
2018-05-13T12:58:16.983Z,23.54
2018-05-13T13:00:44.498Z,22.40
2018-05-13T13:03:12.040Z,21.87
2018-05-13T13:05:39.571Z,21.20
2018-05-13T13:08:07.091Z,21.06
2018-05-13T13:10:34.674Z,20.86
2018-05-13T13:13:02.400Z,20.76
2018-05-13T13:15:30.006Z,21.03
2018-05-13T13:17:58.103Z,21.02
2018-05-13T13:20:25.639Z,20.59
2018-05-13T13:22:53.209Z,20.13
2018-05-13T13:25:20.739Z,19.82
2018-05-13T13:27:48.270Z,20.04
2018-05-13T13:30:16.078Z,19.62
2018-05-13T13:32:43.685Z,19.61
2018-05-13T13:35:11.221Z,19.61
2018-05-13T13:37:38.757Z,19.98
2018-05-13T13:40:06.359Z,20.14
2018-05-13T13:42:34.324Z,19.84
2018-05-13T13:45:01.946Z,20.52
2018-05-13T13:47:34.005Z,20.41
2018-05-13T13:50:02.360Z,20.38
2018-05-13T13:52:29.983Z,20.53
2018-05-13T13:54:57.531Z,20.15
2018-05-13T13:57:25.201Z,19.98
2018-05-13T13:59:52.750Z,20.39
2018-05-13T14:02:20.303Z,20.36
2018-05-13T14:04:47.844Z,19.89
2018-05-13T14:07:15.384Z,20.28
2018-05-13T14:09:42.914Z,20.25
2018-05-13T14:12:10.506Z,20.71
2018-05-13T14:14:38.194Z,20.64
2018-05-13T14:17:05.736Z,20.48
2018-05-13T14:19:33.285Z,19.97
2018-05-13T14:22:00.853Z,19.98
2018-05-13T14:24:28.411Z,20.20
2018-05-13T14:26:55.998Z,19.95
2018-05-13T14:29:23.508Z,19.73
2018-05-13T14:31:51.084Z,19.47
2018-05-13T14:34:18.666Z,19.92
2018-05-13T14:36:46.235Z,19.86
2018-05-13T14:39:13.822Z,20.22
2018-05-13T14:41:41.864Z,20.49
2018-05-13T14:44:09.523Z,20.68
2018-05-13T14:46:37.121Z,20.51
2018-05-13T14:49:04.814Z,20.37
2018-05-13T14:51:32.434Z,20.47
2018-05-13T14:54:00.220Z,20.76
2018-05-13T14:56:27.845Z,20.93
2018-05-13T14:58:55.368Z,21.02
2018-05-13T15:01:23.070Z,20.12
2018-05-13T15:03:50.636Z,19.73
2018-05-13T15:06:18.179Z,19.76
2018-05-13T15:08:45.905Z,19.77
2018-05-13T15:11:13.426Z,19.05
2018-05-13T15:13:40.988Z,18.58
2018-05-13T15:16:10.203Z,18.53
2018-05-13T15:18:38.527Z,18.60
2018-05-13T15:21:06.224Z,18.47
2018-05-13T15:23:33.853Z,17.99
2018-05-13T15:26:01.418Z,17.92
2018-05-13T15:28:29.218Z,17.46
2018-05-13T15:30:57.401Z,17.13
2018-05-13T15:33:24.996Z,17.05
2018-05-13T15:35:52.547Z,16.90
2018-05-13T15:38:20.100Z,16.93
2018-05-13T15:40:47.618Z,17.00
2018-05-13T15:43:15.269Z,17.14
2018-05-13T15:45:42.762Z,17.29
2018-05-13T15:48:10.429Z,17.24
2018-05-13T15:50:39.049Z,17.25
2018-05-13T15:53:07.243Z,16.84
2018-05-13T15:55:34.806Z,16.84
2018-05-13T15:58:04.689Z,16.79
2018-05-13T16:00:32.336Z,16.63
2018-05-13T16:03:00.036Z,16.25
2018-05-13T16:05:27.614Z,16.19
2018-05-13T16:07:55.179Z,16.02
2018-05-13T16:10:22.726Z,15.98
2018-05-13T16:12:50.267Z,15.87
2018-05-13T16:15:17.812Z,15.90
2018-05-13T16:17:45.381Z,16.75
2018-05-13T16:20:13.035Z,17.11
2018-05-13T16:22:40.713Z,17.26
2018-05-13T16:25:08.290Z,17.12
2018-05-13T16:27:35.900Z,17.06
2018-05-13T16:30:03.532Z,16.44
2018-05-13T16:32:31.083Z,16.83
2018-05-13T16:34:58.654Z,16.81
2018-05-13T16:37:26.250Z,16.81
2018-05-13T16:39:53.816Z,17.02
2018-05-13T16:42:21.362Z,16.70
2018-05-13T16:44:48.940Z,16.89
2018-05-13T16:47:16.484Z,17.11
2018-05-13T16:49:44.030Z,17.49
2018-05-13T16:52:11.603Z,17.68
2018-05-13T16:54:39.190Z,18.14
2018-05-13T16:57:06.736Z,18.88
2018-05-13T16:59:34.278Z,18.24
2018-05-13T17:02:01.824Z,18.25
2018-05-13T17:04:30.259Z,18.26
2018-05-13T17:06:57.814Z,18.07
2018-05-13T17:09:25.478Z,17.63
2018-05-13T17:11:52.933Z,17.56
2018-05-13T17:14:20.538Z,17.40
2018-05-13T17:16:48.079Z,17.23
2018-05-13T17:19:15.628Z,17.28
2018-05-13T17:21:43.222Z,16.55
2018-05-13T17:24:10.843Z,16.27
2018-05-13T17:26:38.503Z,16.46
2018-05-13T17:29:06.136Z,16.28
2018-05-13T17:31:33.691Z,16.34
2018-05-13T17:34:01.377Z,16.10
2018-05-13T17:36:28.898Z,16.07
2018-05-13T17:38:56.444Z,16.06
2018-05-13T17:41:24.227Z,16.21
2018-05-13T17:43:52.946Z,16.28
2018-05-13T17:46:20.465Z,16.06
2018-05-13T17:48:48.171Z,16.54
2018-05-13T17:51:15.695Z,16.30
2018-05-13T17:53:43.322Z,15.65
2018-05-13T17:56:11.910Z,15.15
2018-05-13T17:58:43.346Z,15.35
2018-05-13T18:01:12.084Z,15.87
2018-05-13T18:03:39.880Z,16.35
2018-05-13T18:06:07.427Z,16.71
2018-05-13T18:08:35.164Z,16.26
2018-05-13T18:11:03.098Z,15.82
2018-05-13T18:13:30.752Z,15.41
2018-05-13T18:15:59.115Z,15.13
2018-05-13T18:18:26.664Z,14.74
2018-05-13T18:20:54.251Z,14.59
2018-05-13T18:23:22.788Z,14.92
2018-05-13T18:25:50.782Z,15.41
2018-05-13T18:28:18.380Z,15.22
2018-05-13T18:30:45.916Z,14.73
2018-05-13T18:33:13.482Z,14.31
2018-05-13T18:35:41.342Z,14.20
2018-05-13T18:38:08.932Z,14.06
2018-05-13T18:40:36.513Z,13.82
2018-05-13T18:43:04.063Z,13.61
2018-05-13T18:45:31.873Z,13.53
2018-05-13T18:47:59.411Z,13.54
2018-05-13T18:50:28.012Z,14.19
2018-05-13T18:52:55.732Z,14.70
2018-05-13T18:55:23.746Z,15.33
2018-05-13T18:57:51.733Z,15.34
2018-05-13T19:00:19.328Z,15.46
2018-05-13T19:02:47.000Z,15.60
2018-05-13T19:05:14.636Z,15.48
2018-05-13T19:07:42.324Z,16.30
2018-05-13T19:10:09.859Z,16.49
2018-05-13T19:12:37.379Z,16.87
2018-05-13T19:15:05.175Z,17.29
2018-05-13T19:17:32.761Z,17.09
2018-05-13T19:20:00.409Z,17.61
2018-05-13T19:22:31.577Z,17.72
2018-05-13T19:24:59.132Z,17.48
2018-05-13T19:27:28.063Z,17.25
2018-05-13T19:29:55.732Z,17.06
2018-05-13T19:32:24.385Z,17.13
2018-05-13T19:34:52.002Z,16.95
2018-05-13T19:37:19.579Z,16.28
2018-05-13T19:39:47.241Z,16.29
2018-05-13T19:42:16.154Z,15.89
2018-05-13T19:44:45.331Z,15.33
2018-05-13T19:47:13.454Z,14.71
2018-05-13T19:49:43.451Z,13.95
2018-05-13T19:52:11.663Z,13.59
2018-05-13T19:54:39.763Z,13.06
2018-05-13T19:57:29.337Z,12.85
2018-05-13T19:59:58.485Z,12.72
2018-05-13T20:02:28.501Z,12.71
2018-05-13T20:05:16.632Z,12.63
2018-05-13T20:10:33.333Z,12.78
2018-05-13T20:13:07.915Z,12.76
2018-05-13T20:15:36.578Z,12.76
2018-05-13T20:18:05.786Z,12.86
2018-05-13T20:20:37.128Z,12.81
2018-05-13T20:23:18.536Z,12.70
2018-05-13T20:25:49.891Z,12.76
2018-05-13T20:28:21.391Z,12.80
2018-05-13T20:30:53.866Z,13.20
2018-05-13T20:33:26.412Z,14.03
2018-05-13T20:38:41.654Z,14.41
2018-05-13T20:41:23.996Z,14.71
2018-05-13T20:43:57.641Z,14.81
2018-05-13T20:46:30.078Z,14.55
2018-05-13T20:48:58.419Z,14.72
2018-05-13T20:51:31.704Z,14.35
2018-05-13T20:54:04.082Z,14.02
2018-05-13T20:56:33.162Z,13.76
2018-05-13T20:59:03.333Z,13.54
2018-05-13T21:01:34.009Z,13.39
2018-05-13T21:04:05.312Z,13.26
2018-05-13T21:06:35.181Z,13.21
2018-05-13T21:09:09.026Z,13.14
2018-05-13T21:39:53.173Z,12.86
2018-05-13T21:42:33.491Z,12.85
2018-05-13T21:45:02.828Z,12.92
2018-05-13T21:47:30.797Z,12.95
2018-05-13T21:49:58.664Z,12.93
2018-05-13T21:52:27.188Z,12.96
2018-05-13T21:54:57.266Z,12.81
2018-05-13T21:57:26.446Z,12.95
2018-05-13T21:59:56.275Z,12.98
2018-05-13T22:02:49.476Z,13.07
2018-05-13T22:57:21.859Z,12.84
2018-05-13T23:00:09.601Z,12.90
